Flight Track Log - Related Links

Times and Time Zones

All times are in EDT time to prevent confusion due to time zone crossing. See the SKW6440 flight status page for this flight to view local times or setup timezone preferences in your user account.

Time Position Orientation Groundspeed Altitude Reporting Facility
EDT Latitude Longitude Course Direction KTS MPH feet Rate Location/Type
Tue 19:26:09 33.9311 -118.4450 55° Northeast 170 196 1,400  Level Los Center
Tue 19:27:11 33.9119 -118.5272 254° West 236 272 3,800 2,419 Climbing Los Center
Tue 19:28:00 34.1326 -118.0680 59° Northeast  Level FlightAware
Tue 19:28:13 33.8872 -118.6067 249° West 254 292 6,400  Level Los Center
Tue 19:29:00 34.2020 -117.9294 59° Northeast  Level FlightAware
Tue 19:29:15 33.8267 -118.6419 206° Southwest 261 300 8,900  Level Los Center
Tue 19:30:00 34.2761 -117.8072 40° Northeast  Level FlightAware
Tue 19:30:17 33.8264 -118.5614 90° East 289 333 10,400  Level Los Center
Tue 19:31:00 34.3464 -117.6729 55° Northeast  Level FlightAware
Tue 19:31:19 33.8906 -118.4875 44° Northeast 311 358 12,800  Level Los Center
Tue 19:32:21 33.9531 -118.4028 48° Northeast 334 384 14,300 1,680 Climbing Los Center
Tue 19:33:24 34.0092 -118.3011 56° Northeast 358 412 16,300 1,824 Climbing Los Center
Tue 19:34:26 34.0678 -118.1975 56° Northeast 369 425 18,100 1,403 Climbing Los Center
Tue 19:35:28 34.1283 -118.0883 56° Northeast 387 445 19,200 1,113 Climbing Los Center
Tue 19:36:30 34.2083 -117.9483 55° Northeast 419 482 20,400 1,210 Climbing Los Center
Tue 19:37:32 34.2778 -117.8239 56° Northeast 441 507 21,700 1,355 Climbing Los Center
Tue 19:38:34 34.3469 -117.6997 56° Northeast 446 513 23,200 1,500 Climbing Los Center
Tue 19:39:36 34.4211 -117.5706 55° Northeast 443 510 24,800 1,500 Climbing Los Center
Tue 19:40:38 34.5008 -117.4597 49° Northeast 441 507 26,300 1,452 Climbing Los Center
Tue 19:41:40 34.5783 -117.3481 50° Northeast 437 503 27,800 1,452 Climbing Los Center
Tue 19:42:42 34.6567 -117.2372 49° Northeast 436 502 29,300 1,452 Climbing Los Center
Tue 19:43:44 34.7336 -117.1283 49° Northeast 429 494 30,800 1,597 Climbing Los Center
Tue 19:44:46 34.8242 -116.9978 50° Northeast 424 488 32,600 1,452 Climbing Los Center
Tue 19:45:48 34.8981 -116.8925 49° Northeast 413 475 33,800 919 Climbing Los Center
Tue 19:46:50 34.9714 -116.7856 50° Northeast 413 475 34,500 677 Climbing Los Center
Tue 19:47:52 35.0483 -116.6769 49° Northeast 421 484 35,200 677 Climbing Los Center
Tue 19:48:54 35.1247 -116.5669 50° Northeast 426 490 35,900 618 Climbing Los Center
Tue 19:50:08 35.2164 -116.4344 50° Northeast 427 491 36,600 569 Climbing Los Center
Tue 19:51:11 35.3081 -116.2994 50° Northeast 430 495 37,200 528 Climbing Los Center
Tue 19:52:13 35.3850 -116.1875 50° Northeast 432 497 37,700 484 Climbing Los Center
Tue 19:53:15 35.4608 -116.0744 51° Northeast 431 496 38,200 484 Climbing Los Center
Tue 19:54:17 35.5389 -115.9628 49° Northeast 432 497 38,700 339 Climbing Los Center
Tue 19:55:19 35.6192 -115.8447 50° Northeast 429 494 38,900 145 Climbing Los Center
Tue 19:56:21 35.7106 -115.7094 50° Northeast 429 494 39,000 48 Climbing Los Center
Tue 19:57:23 35.7892 -115.5936 50° Northeast 440 506 39,000  Level Los Center
Tue 19:58:25 35.8683 -115.4756 50° Northeast 447 514 39,000  Level Los Center
Tue 19:59:28 35.9481 -115.3561 50° Northeast 454 522 39,000  Level Los Center
Tue 20:00:29 36.0283 -115.2372 50° Northeast 454 522 39,000  Level Los Center
Tue 20:01:31 36.0969 -115.0622 64° Northeast 481 554 39,000  Level Los Center
Tue 20:02:33 36.1244 -114.8961 78° East 493 567 39,000  Level Los Center
Tue 20:03:35 36.1539 -114.7303 78° East 495 570 39,000  Level Los Center
Tue 20:04:37 36.1836 -114.5628 78° East 499 574 39,000  Level Los Center
Tue 20:05:39 36.2119 -114.3958 78° East 497 572 39,000  Level Los Center
Tue 20:06:41 36.2397 -114.2267 78° East 502 578 39,000  Level Los Center
Tue 20:07:43 36.2747 -114.0244 78° East 502 578 39,000  Level Los Center
Tue 20:08:45 36.3031 -113.8533 78° East 507 583 39,000  Level Los Center
Tue 20:09:47 36.3311 -113.6828 78° East 506 582 39,000  Level Los Center
Tue 20:10:51 36.3597 -113.5117 78° East 507 583 39,000  Level Los Center
Tue 20:11:52 36.3875 -113.3406 79° East 507 583 39,000  Level Los Center
Tue 20:12:54 36.4186 -113.1519 78° East 509 586 39,000  Level Los Center
Tue 20:13:56 36.4450 -112.9800 79° East 509 586 39,000  Level Los Center
Tue 20:14:58 36.4728 -112.8072 79° East 512 589 39,000  Level Los Center
Tue 20:16:00 36.5033 -112.6011 79° East 510 587 39,000  Level Los Center
Tue 20:17:02 36.5306 -112.4278 79° East 512 589 39,000  Level Los Center
Tue 20:18:04 36.5564 -112.2547 79° East 512 589 39,000  Level Los Center
Tue 20:19:06 36.5828 -112.0817 79° East 512 589 39,000  Level Los Center
Tue 20:20:10 36.6103 -111.9078 79° East 513 590 39,000  Level Los Center
Tue 20:20:53 36.6308 -111.7681 80° East 515 593 39,000  Level Denver Center
Tue 20:21:55 36.6542 -111.5953 80° East 512 589 39,000  Level Denver Center
Tue 20:22:57 36.6822 -111.4181 79° East 519 597 39,000  Level Denver Center
Tue 20:23:59 36.7267 -111.2169 75° East 505 581 39,000  Level Denver Center
Tue 20:25:01 36.7742 -111.0514 70° East 507 583 39,000  Level Denver Center
Tue 20:26:03 36.8172 -110.8875 72° East 501 577 39,000  Level Denver Center
Tue 20:27:05 36.8619 -110.7228 71° East 503 579 39,000  Level Denver Center
Tue 20:28:07 36.9069 -110.5561 71° East 509 586 39,000  Level Denver Center
Tue 20:29:09 36.9503 -110.3883 72° East 510 587 39,000  Level Denver Center
Tue 20:30:10 37.0042 -110.1875 71° East 509 586 39,000  Level Denver Center
Tue 20:31:12 37.0506 -110.0125 72° East 512 589 39,000  Level Denver Center
Tue 20:32:14 37.0922 -109.8497 72° East 513 590 39,000  Level Denver Center
Tue 20:33:16 37.1361 -109.6828 72° East 519 597 39,000  Level Denver Center
Tue 20:34:18 37.1853 -109.4922 72° East 516 594 39,000  Level Denver Center
Tue 20:35:20 37.2267 -109.3289 72° East 513 590 39,000  Level Denver Center
Tue 20:36:22 37.2758 -109.1344 72° East 520 598 39,000  Level Denver Center
Tue 20:37:25 37.3181 -108.9686 72° East 520 598 39,000  Level Denver Center
Tue 20:38:26 37.3672 -108.7733 72° East 522 601 39,000  Level Denver Center
Tue 20:39:27 37.4083 -108.6047 73° East 525 604 39,000  Level Denver Center
Tue 20:40:29 37.4497 -108.4361 73° East 526 605 39,000  Level Denver Center
Tue 20:41:31 37.4983 -108.2397 73° East 527 606 39,000  Level Denver Center
Tue 20:42:33 37.5397 -108.0694 73° East 528 608 39,000  Level Denver Center
Tue 20:43:35 37.5869 -107.8697 73° East 532 612 39,000  Level Denver Center
Tue 20:44:36 37.6283 -107.7000 73° East 528 608 39,000 -98 Level Denver Center
Tue 20:45:38 37.6767 -107.4992 73° East 534 615 38,800 -581 Descending Denver Center
Tue 20:46:40 37.7156 -107.3292 74° East 528 608 37,800 -927 Descending Denver Center
Tue 20:47:41 37.7553 -107.1603 73° East 525 604 36,900 -1,122 Descending Denver Center
Tue 20:48:43 37.7994 -106.9656 74° East 518 596 35,500 -1,742 Descending Denver Center
Tue 20:49:45 37.8436 -106.7806 73° East 517 595 33,300 -2,000 Descending Denver Center
Tue 20:50:46 37.8786 -106.6211 74° East 494 568 31,400 -1,756 Descending Denver Center
Tue 20:51:48 37.9100 -106.4847 74° East 483 556 29,700 -2,081 Descending Denver Center
Tue 20:52:50 37.9567 -106.2794 74° East 475 547 27,100 -1,951 Descending Denver Center
Tue 20:53:51 37.9897 -106.1286 74° East 468 539 25,700 -1,415 Descending Denver Center
Tue 20:54:53 38.0242 -105.9781 74° East 464 534 24,200 -1,368 Descending Denver Center
Tue 20:56:07 38.0611 -105.8078 75° East 452 520 22,600 -1,588 Descending Denver Center
Tue 20:57:09 38.1042 -105.6153 74° East 444 511 20,600 -1,561 Descending Denver Center
Tue 20:58:10 38.1289 -105.4986 75° East 436 502 19,400 -1,171 Descending Denver Center
Tue 20:59:12 38.1661 -105.3331 74° East 435 501 18,200 -1,024 Descending Denver Center
Tue 21:00:13 38.2003 -105.1711 75° East 430 495 17,300 -927 Descending Denver Center
Tue 21:01:15 38.2286 -105.0339 75° East 423 487 16,300 -1,024 Descending Denver Center
Tue 21:02:16 38.2617 -104.8764 75° East 415 478 15,200 -1,024 Descending Denver Center
Tue 21:03:18 38.2894 -104.7464 75° East 402 463 14,200 -585 Descending Denver Center
Tue 21:04:19 38.3494 -104.6539 50° Northeast 390 449 14,000 -98 Descending Denver Center
Tue 21:05:21 38.4600 -104.6419 North 360 414 14,000  Level Denver Center
Tue 21:06:22 38.5556 -104.6322 North 358 412 14,000  Level Denver Center
Tue 21:07:24 38.6700 -104.6094 North 367 422 14,000 -726 Level Denver Center
Tue 21:08:26 38.7611 -104.5897 10° North 350 403 12,500 -1,415 Descending Denver Center
Tue 21:09:27 38.8403 -104.5744 North 309 356 11,100 -1,512 Descending Denver Center
Tue 21:10:29 38.9261 -104.5753 360° North 276 318 9,400 -1,024 Descending Denver Center
Tue 21:11:30 39.0003 -104.5781 358° North 265 305 9,000 -195 Descending Denver Center
Tue 21:12:32 39.0606 -104.6122 336° Northwest 252 290 9,000  Level Denver Center
Tue 21:13:33 39.0331 -104.6753 241° Southwest 216 249 9,000  Level Denver Center
Tue 21:14:35 38.9811 -104.6864 189° South 195 224 9,000 -49 Level Denver Center
Tue 21:15:36 38.9414 -104.6831 176° South 178 205 8,900 -98 Descending Denver Center

Login

Don't have an account? Register now (free) for customized features, flight alerts, and more!